sensor_id;sensor_type;location;lat;lon;timestamp;pressure;altitude;pressure_sealevel;temperature;humidity
73748;BME280;62056;52.130;5.428;2023-11-19T00:00:07;100974.69;;;12.44;100.00
73748;BME280;62056;52.130;5.428;2023-11-19T00:02:41;100965.09;;;12.43;100.00
73748;BME280;62056;52.130;5.428;2023-11-19T00:05:09;100963.53;;;12.42;100.00
73748;BME280;62056;52.130;5.428;2023-11-19T00:07:39;100974.19;;;12.42;100.00
73748;BME280;62056;52.130;5.428;2023-11-19T00:10:10;100958.19;;;12.42;100.00
73748;BME280;62056;52.130;5.428;2023-11-19T00:12:42;100961.13;;;12.41;100.00
73748;BME280;62056;52.130;5.428;2023-11-19T00:15:09;100947.53;;;12.42;100.00
73748;BME280;62056;52.130;5.428;2023-11-19T00:17:41;100945.91;;;12.41;100.00
73748;BME280;62056;52.130;5.428;2023-11-19T00:20:12;100966.47;;;12.41;100.00
73748;BME280;62056;52.130;5.428;2023-11-19T00:22:39;100953.13;;;12.41;100.00
73748;BME280;62056;52.130;5.428;2023-11-19T00:25:15;100966.19;;;12.42;100.00
73748;BME280;62056;52.130;5.428;2023-11-19T00:27:42;100952.84;;;12.42;100.00
73748;BME280;62056;52.130;5.428;2023-11-19T00:30:11;100942.69;;;12.44;100.00
73748;BME280;62056;52.130;5.428;2023-11-19T00:32:38;100943.19;;;12.46;100.00
73748;BME280;62056;52.130;5.428;2023-11-19T00:35:06;100943.97;;;12.47;100.00
73748;BME280;62056;52.130;5.428;2023-11-19T00:37:33;100932.78;;;12.45;100.00
73748;BME280;62056;52.130;5.428;2023-11-19T00:40:00;100930.13;;;12.45;100.00
73748;BME280;62056;52.130;5.428;2023-11-19T00:42:27;100937.34;;;12.44;100.00
73748;BME280;62056;52.130;5.428;2023-11-19T00:44:54;100940.81;;;12.45;100.00
73748;BME280;62056;52.130;5.428;2023-11-19T00:47:21;100927.75;;;12.43;100.00
73748;BME280;62056;52.130;5.428;2023-11-19T00:49:48;100926.97;;;12.43;100.00
73748;BME280;62056;52.130;5.428;2023-11-19T00:52:16;100919.75;;;12.43;100.00
73748;BME280;62056;52.130;5.428;2023-11-19T00:54:43;100913.34;;;12.44;100.00
73748;BME280;62056;52.130;5.428;2023-11-19T00:57:09;100913.13;;;12.41;100.00
73748;BME280;62056;52.130;5.428;2023-11-19T00:59:36;100914.72;;;12.42;100.00
73748;BME280;62056;52.130;5.428;2023-11-19T01:02:03;100924.59;;;12.41;100.00
73748;BME280;62056;52.130;5.428;2023-11-19T01:04:36;100927.25;;;12.41;100.00
73748;BME280;62056;52.130;5.428;2023-11-19T01:07:03;100928.56;;;12.44;100.00
73748;BME280;62056;52.130;5.428;2023-11-19T01:09:34;100921.63;;;12.43;100.00
73748;BME280;62056;52.130;5.428;2023-11-19T01:12:02;100920.06;;;12.42;100.00
73748;BME280;62056;52.130;5.428;2023-11-19T01:14:29;100932.00;;;12.44;100.00
73748;BME280;62056;52.130;5.428;2023-11-19T01:16:56;100935.19;;;12.46;100.00
73748;BME280;62056;52.130;5.428;2023-11-19T01:19:24;100927.47;;;12.45;100.00
73748;BME280;62056;52.130;5.428;2023-11-19T01:21:51;100915.72;;;12.46;100.00
73748;BME280;62056;52.130;5.428;2023-11-19T01:24:18;100897.50;;;12.48;100.00
73748;BME280;62056;52.130;5.428;2023-11-19T01:26:44;100907.41;;;12.47;100.00
73748;BME280;62056;52.130;5.428;2023-11-19T01:29:12;100899.41;;;12.47;100.00
73748;BME280;62056;52.130;5.428;2023-11-19T01:31:43;100898.63;;;12.47;100.00
73748;BME280;62056;52.130;5.428;2023-11-19T01:34:10;100887.75;;;12.43;100.00
73748;BME280;62056;52.130;5.428;2023-11-19T01:36:38;100900.00;;;12.44;100.00
73748;BME280;62056;52.130;5.428;2023-11-19T01:39:06;100904.25;;;12.45;100.00
73748;BME280;62056;52.130;5.428;2023-11-19T01:41:36;100894.69;;;12.44;100.00
73748;BME280;62056;52.130;5.428;2023-11-19T01:44:03;100897.84;;;12.46;100.00
73748;BME280;62056;52.130;5.428;2023-11-19T01:46:30;100901.28;;;12.47;100.00
73748;BME280;62056;52.130;5.428;2023-11-19T01:49:00;100905.53;;;12.48;100.00
73748;BME280;62056;52.130;5.428;2023-11-19T01:51:27;100905.53;;;12.48;100.00
73748;BME280;62056;52.130;5.428;2023-11-19T01:53:55;100902.84;;;12.48;100.00
73748;BME280;62056;52.130;5.428;2023-11-19T01:56:24;100905.53;;;12.48;100.00
73748;BME280;62056;52.130;5.428;2023-11-19T01:58:53;100902.84;;;12.48;100.00
73748;BME280;62056;52.130;5.428;2023-11-19T02:01:21;100910.38;;;12.46;100.00
73748;BME280;62056;52.130;5.428;2023-11-19T02:03:48;100899.72;;;12.46;100.00
73748;BME280;62056;52.130;5.428;2023-11-19T02:06:15;100902.38;;;12.46;100.00
73748;BME280;62056;52.130;5.428;2023-11-19T02:08:43;100898.41;;;12.43;100.00
73748;BME280;62056;52.130;5.428;2023-11-19T02:11:10;100887.25;;;12.41;100.00
73748;BME280;62056;52.130;5.428;2023-11-19T02:13:39;100879.56;;;12.40;100.00
73748;BME280;62056;52.130;5.428;2023-11-19T02:16:08;100890.25;;;12.40;100.00
73748;BME280;62056;52.130;5.428;2023-11-19T02:18:37;100888.44;;;12.35;100.00
73748;BME280;62056;52.130;5.428;2023-11-19T02:21:05;100896.75;;;12.33;100.00
73748;BME280;62056;52.130;5.428;2023-11-19T02:23:32;100904.25;;;12.31;100.00
73748;BME280;62056;52.130;5.428;2023-11-19T02:26:12;100912.53;;;12.30;100.00
73748;BME280;62056;52.130;5.428;2023-11-19T02:28:41;100912.06;;;12.28;100.00
73748;BME280;62056;52.130;5.428;2023-11-19T02:31:10;100915.28;;;12.25;100.00
73748;BME280;62056;52.130;5.428;2023-11-19T02:33:37;100923.59;;;12.23;100.00
73748;BME280;62056;52.130;5.428;2023-11-19T02:36:05;100916.97;;;12.21;100.00
73748;BME280;62056;52.130;5.428;2023-11-19T02:38:36;100911.44;;;12.17;100.00
73748;BME280;62056;52.130;5.428;2023-11-19T02:41:04;100921.13;;;12.13;100.00
73748;BME280;62056;52.130;5.428;2023-11-19T02:43:34;100900.09;;;12.11;100.00
73748;BME280;62056;52.130;5.428;2023-11-19T02:46:02;100910.84;;;12.06;100.00
73748;BME280;62056;52.130;5.428;2023-11-19T02:48:36;100895.16;;;12.05;100.00
73748;BME280;62056;52.130;5.428;2023-11-19T02:51:04;100898.09;;;12.03;100.00
73748;BME280;62056;52.130;5.428;2023-11-19T02:53:31;100898.69;;;12.00;100.00
73748;BME280;62056;52.130;5.428;2023-11-19T02:55:58;100896.31;;;11.99;100.00
73748;BME280;62056;52.130;5.428;2023-11-19T02:58:35;100906.47;;;11.97;100.00
73748;BME280;62056;52.130;5.428;2023-11-19T03:01:04;100907.56;;;11.95;100.00
73748;BME280;62056;52.130;5.428;2023-11-19T03:03:39;100904.38;;;11.93;100.00
73748;BME280;62056;52.130;5.428;2023-11-19T03:06:08;100901.22;;;11.91;100.00
73748;BME280;62056;52.130;5.428;2023-11-19T03:08:36;100898.88;;;11.90;100.00
73748;BME280;62056;52.130;5.428;2023-11-19T03:11:02;100900.19;;;11.87;100.00
73748;BME280;62056;52.130;5.428;2023-11-19T03:13:31;100904.25;;;11.85;100.00
73748;BME280;62056;52.130;5.428;2023-11-19T03:15:58;100912.53;;;11.83;100.00
73748;BME280;62056;52.130;5.428;2023-11-19T03:18:24;100910.47;;;11.80;100.00
73748;BME280;62056;52.130;5.428;2023-11-19T03:20:51;100909.97;;;11.78;100.00
73748;BME280;62056;52.130;5.428;2023-11-19T03:23:18;100907.88;;;11.75;100.00
73748;BME280;62056;52.130;5.428;2023-11-19T03:25:45;100907.06;;;11.74;100.00
73748;BME280;62056;52.130;5.428;2023-11-19T03:28:12;100911.41;;;11.70;100.00
73748;BME280;62056;52.130;5.428;2023-11-19T03:30:39;100910.63;;;11.70;100.00
73748;BME280;62056;52.130;5.428;2023-11-19T03:33:06;100903.50;;;11.65;100.00
73748;BME280;62056;52.130;5.428;2023-11-19T03:35:33;100902.50;;;11.61;100.00
73748;BME280;62056;52.130;5.428;2023-11-19T03:38:00;100896.97;;;11.58;100.00
73748;BME280;62056;52.130;5.428;2023-11-19T03:40:28;100891.13;;;11.55;100.00
73748;BME280;62056;52.130;5.428;2023-11-19T03:42:58;100883.44;;;11.54;100.00
73748;BME280;62056;52.130;5.428;2023-11-19T03:45:25;100882.94;;;11.52;100.00
73748;BME280;62056;52.130;5.428;2023-11-19T03:47:52;100881.66;;;11.49;100.00
73748;BME280;62056;52.130;5.428;2023-11-19T03:50:18;100892.91;;;11.46;100.00
73748;BME280;62056;52.130;5.428;2023-11-19T03:52:47;100891.91;;;11.42;100.00
73748;BME280;62056;52.130;5.428;2023-11-19T03:55:14;100894.84;;;11.41;100.00
73748;BME280;62056;52.130;5.428;2023-11-19T03:57:41;100909.53;;;11.38;100.00
73748;BME280;62056;52.130;5.428;2023-11-19T04:00:07;100903.69;;;11.36;100.00
73748;BME280;62056;52.130;5.428;2023-11-19T04:02:37;100911.19;;;11.34;100.00
73748;BME280;62056;52.130;5.428;2023-11-19T04:05:04;100906.72;;;11.29;100.00
73748;BME280;62056;52.130;5.428;2023-11-19T04:07:31;100915.78;;;11.28;100.00
73748;BME280;62056;52.130;5.428;2023-11-19T04:09:58;100917.16;;;11.26;100.00
73748;BME280;62056;52.130;5.428;2023-11-19T04:12:25;100907.06;;;11.23;100.00
73748;BME280;62056;52.130;5.428;2023-11-19T04:14:52;100927.06;;;11.20;100.00
73748;BME280;62056;52.130;5.428;2023-11-19T04:17:22;100924.69;;;11.19;100.00
73748;BME280;62056;52.130;5.428;2023-11-19T04:19:49;100924.19;;;11.17;100.00
73748;BME280;62056;52.130;5.428;2023-11-19T04:22:16;100921.06;;;11.14;100.00
73748;BME280;62056;52.130;5.428;2023-11-19T04:24:43;100923.72;;;11.14;100.00
73748;BME280;62056;52.130;5.428;2023-11-19T04:27:12;100923.22;;;11.12;100.00
73748;BME280;62056;52.130;5.428;2023-11-19T04:29:39;100924.28;;;11.11;100.00
73748;BME280;62056;52.130;5.428;2023-11-19T04:32:06;100918.16;;;11.11;100.00
73748;BME280;62056;52.130;5.428;2023-11-19T04:34:32;100923.78;;;11.09;100.00
73748;BME280;62056;52.130;5.428;2023-11-19T04:36:59;100918.72;;;11.08;100.00
73748;BME280;62056;52.130;5.428;2023-11-19T04:39:33;100918.22;;;11.06;100.00
73748;BME280;62056;52.130;5.428;2023-11-19T04:41:59;100916.94;;;11.03;100.00
73748;BME280;62056;52.130;5.428;2023-11-19T04:44:26;100929.19;;;11.04;100.00
73748;BME280;62056;52.130;5.428;2023-11-19T04:46:53;100920.69;;;11.02;100.00
73748;BME280;62056;52.130;5.428;2023-11-19T04:49:19;100930.81;;;11.00;100.00
73748;BME280;62056;52.130;5.428;2023-11-19T04:51:47;100923.91;;;10.99;100.00
73748;BME280;62056;52.130;5.428;2023-11-19T04:54:14;100926.06;;;10.97;100.00
73748;BME280;62056;52.130;5.428;2023-11-19T04:56:45;100920.75;;;10.97;100.00
73748;BME280;62056;52.130;5.428;2023-11-19T04:59:11;100908.53;;;10.96;100.00
73748;BME280;62056;52.130;5.428;2023-11-19T05:01:38;100914.91;;;10.95;100.00
73748;BME280;62056;52.130;5.428;2023-11-19T05:04:05;100908.03;;;10.94;100.00
73748;BME280;62056;52.130;5.428;2023-11-19T05:06:32;100920.81;;;10.92;100.00
73748;BME280;62056;52.130;5.428;2023-11-19T05:09:00;100935.19;;;10.91;100.00
73748;BME280;62056;52.130;5.428;2023-11-19T05:11:33;100934.69;;;10.89;100.00
73748;BME280;62056;52.130;5.428;2023-11-19T05:14:03;100942.94;;;10.87;100.00
73748;BME280;62056;52.130;5.428;2023-11-19T05:16:31;100940.28;;;10.87;100.00
73748;BME280;62056;52.130;5.428;2023-11-19T05:18:58;100945.91;;;10.86;100.00
73748;BME280;62056;52.130;5.428;2023-11-19T05:21:25;100946.19;;;10.84;100.00
73748;BME280;62056;52.130;5.428;2023-11-19T05:23:52;100927.56;;;10.84;100.00
73748;BME280;62056;52.130;5.428;2023-11-19T05:26:21;100921.44;;;10.84;100.00
73748;BME280;62056;52.130;5.428;2023-11-19T05:28:48;100919.06;;;10.82;100.00
73748;BME280;62056;52.130;5.428;2023-11-19T05:31:16;100925.47;;;10.81;99.92
73748;BME280;62056;52.130;5.428;2023-11-19T05:33:44;100922.31;;;10.79;100.00
73748;BME280;62056;52.130;5.428;2023-11-19T05:36:11;100934.28;;;10.77;99.85
73748;BME280;62056;52.130;5.428;2023-11-19T05:38:39;100933.78;;;10.74;100.00
73748;BME280;62056;52.130;5.428;2023-11-19T05:41:06;100930.63;;;10.72;99.93
73748;BME280;62056;52.130;5.428;2023-11-19T05:43:33;100937.81;;;10.72;100.00
73748;BME280;62056;52.130;5.428;2023-11-19T05:46:00;100936.75;;;10.73;100.00
73748;BME280;62056;52.130;5.428;2023-11-19T05:48:28;100920.56;;;10.69;99.79
73748;BME280;62056;52.130;5.428;2023-11-19T05:50:55;100929.31;;;10.70;99.54
73748;BME280;62056;52.130;5.428;2023-11-19T05:53:22;100929.91;;;10.67;100.00
73748;BME280;62056;52.130;5.428;2023-11-19T05:55:49;100939.44;;;10.68;99.75
73748;BME280;62056;52.130;5.428;2023-11-19T05:58:25;100937.88;;;10.67;99.61
73748;BME280;62056;52.130;5.428;2023-11-19T06:00:52;100935.78;;;10.64;100.00
73748;BME280;62056;52.130;5.428;2023-11-19T06:03:19;100938.44;;;10.64;99.86
73748;BME280;62056;52.130;5.428;2023-11-19T06:05:48;100925.13;;;10.64;100.00
73748;BME280;62056;52.130;5.428;2023-11-19T06:08:15;100929.94;;;10.62;100.00
73748;BME280;62056;52.130;5.428;2023-11-19T06:10:44;100942.97;;;10.63;99.94
73748;BME280;62056;52.130;5.428;2023-11-19T06:13:13;100928.06;;;10.62;99.77
73748;BME280;62056;52.130;5.428;2023-11-19T06:15:42;100919.31;;;10.62;99.88
73748;BME280;62056;52.130;5.428;2023-11-19T06:18:09;100934.47;;;10.61;100.00
73748;BME280;62056;52.130;5.428;2023-11-19T06:20:38;100935.53;;;10.60;99.81
73748;BME280;62056;52.130;5.428;2023-11-19T06:23:08;100935.53;;;10.60;99.66
73748;BME280;62056;52.130;5.428;2023-11-19T06:25:35;100940.06;;;10.60;99.43
73748;BME280;62056;52.130;5.428;2023-11-19T06:28:02;100944.59;;;10.59;99.70
73748;BME280;62056;52.130;5.428;2023-11-19T06:30:29;100951.00;;;10.58;99.65
73748;BME280;62056;52.130;5.428;2023-11-19T06:32:58;100940.94;;;10.55;99.65
73748;BME280;62056;52.130;5.428;2023-11-19T06:35:26;100950.78;;;10.55;99.34
73748;BME280;62056;52.130;5.428;2023-11-19T06:37:55;100952.13;;;10.52;99.33
73748;BME280;62056;52.130;5.428;2023-11-19T06:40:22;100948.66;;;10.51;99.47
73748;BME280;62056;52.130;5.428;2023-11-19T06:42:49;100955.06;;;10.50;99.29
73748;BME280;62056;52.130;5.428;2023-11-19T06:45:16;100959.88;;;10.48;99.52
73748;BME280;62056;52.130;5.428;2023-11-19T06:47:42;100960.66;;;10.49;99.56
73748;BME280;62056;52.130;5.428;2023-11-19T06:50:09;100970.53;;;10.48;99.48
73748;BME280;62056;52.130;5.428;2023-11-19T06:52:36;100967.88;;;10.48;99.37
73748;BME280;62056;52.130;5.428;2023-11-19T06:55:04;100968.66;;;10.49;99.26
73748;BME280;62056;52.130;5.428;2023-11-19T06:57:34;100970.00;;;10.46;99.48
73748;BME280;62056;52.130;5.428;2023-11-19T07:00:01;100967.34;;;10.46;99.68
73748;BME280;62056;52.130;5.428;2023-11-19T07:02:28;100975.31;;;10.46;99.64
73748;BME280;62056;52.130;5.428;2023-11-19T07:04:55;100972.66;;;10.46;99.90
73748;BME280;62056;52.130;5.428;2023-11-19T07:07:22;100975.31;;;10.46;99.50
73748;BME280;62056;52.130;5.428;2023-11-19T07:09:48;100977.97;;;10.46;99.85
73748;BME280;62056;52.130;5.428;2023-11-19T07:12:15;100980.66;;;10.46;99.78
73748;BME280;62056;52.130;5.428;2023-11-19T07:14:42;100978.78;;;10.47;99.83
73748;BME280;62056;52.130;5.428;2023-11-19T07:17:09;100980.66;;;10.46;99.88
73748;BME280;62056;52.130;5.428;2023-11-19T07:19:37;100984.09;;;10.47;99.81
73748;BME280;62056;52.130;5.428;2023-11-19T07:22:05;100992.06;;;10.47;99.89
73748;BME280;62056;52.130;5.428;2023-11-19T07:24:33;100990.19;;;10.47;100.00
73748;BME280;62056;52.130;5.428;2023-11-19T07:27:00;101005.88;;;10.49;99.92
73748;BME280;62056;52.130;5.428;2023-11-19T07:29:27;100981.16;;;10.48;99.84
73748;BME280;62056;52.130;5.428;2023-11-19T07:31:55;100998.69;;;10.49;99.96
73748;BME280;62056;52.130;5.428;2023-11-19T07:34:24;100998.41;;;10.51;100.00
73748;BME280;62056;52.130;5.428;2023-11-19T07:36:51;101001.81;;;10.57;100.00
73748;BME280;62056;52.130;5.428;2023-11-19T07:39:19;101002.84;;;10.61;100.00
73748;BME280;62056;52.130;5.428;2023-11-19T07:41:47;101007.03;;;10.67;100.00
73748;BME280;62056;52.130;5.428;2023-11-19T07:44:14;101007.75;;;10.72;100.00
73748;BME280;62056;52.130;5.428;2023-11-19T07:46:40;101001.03;;;10.80;100.00
73748;BME280;62056;52.130;5.428;2023-11-19T07:49:08;101003.63;;;10.85;100.00
73748;BME280;62056;52.130;5.428;2023-11-19T07:51:36;100996.88;;;10.93;100.00
73748;BME280;62056;52.130;5.428;2023-11-19T07:54:03;100999.19;;;11.00;100.00
73748;BME280;62056;52.130;5.428;2023-11-19T07:56:32;100995.13;;;11.07;100.00
73748;BME280;62056;52.130;5.428;2023-11-19T07:58:58;100995.56;;;11.14;100.00
73748;BME280;62056;52.130;5.428;2023-11-19T08:01:25;100998.38;;;11.23;100.00
73748;BME280;62056;52.130;5.428;2023-11-19T08:03:52;100989.25;;;11.29;100.00
73748;BME280;62056;52.130;5.428;2023-11-19T08:06:21;100989.97;;;11.35;100.00
73748;BME280;62056;52.130;5.428;2023-11-19T08:08:48;100995.22;;;11.40;100.00
73748;BME280;62056;52.130;5.428;2023-11-19T08:11:14;101000.19;;;11.47;100.00
73748;BME280;62056;52.130;5.428;2023-11-19T08:13:41;101001.72;;;11.53;100.00
73748;BME280;62056;52.130;5.428;2023-11-19T08:16:09;100992.34;;;11.55;100.00
73748;BME280;62056;52.130;5.428;2023-11-19T08:18:37;100992.56;;;11.59;100.00
73748;BME280;62056;52.130;5.428;2023-11-19T08:21:04;101005.28;;;11.62;100.00
73748;BME280;62056;52.130;5.428;2023-11-19T08:23:31;101002.84;;;11.66;100.00
73748;BME280;62056;52.130;5.428;2023-11-19T08:25:58;101004.31;;;11.77;100.00
73748;BME280;62056;52.130;5.428;2023-11-19T08:28:25;100985.16;;;11.75;100.00
73748;BME280;62056;52.130;5.428;2023-11-19T08:30:51;100993.34;;;11.79;100.00
73748;BME280;62056;52.130;5.428;2023-11-19T08:33:18;101001.81;;;11.81;100.00
73748;BME280;62056;52.130;5.428;2023-11-19T08:35:45;100999.38;;;11.84;100.00
73748;BME280;62056;52.130;5.428;2023-11-19T08:38:13;100998.78;;;11.87;100.00
73748;BME280;62056;52.130;5.428;2023-11-19T08:40:57;101009.44;;;11.87;100.00
73748;BME280;62056;52.130;5.428;2023-11-19T08:43:26;101005.66;;;11.93;100.00
73748;BME280;62056;52.130;5.428;2023-11-19T08:45:54;101006.47;;;11.94;100.00
73748;BME280;62056;52.130;5.428;2023-11-19T08:48:21;101016.16;;;12.04;100.00
73748;BME280;62056;52.130;5.428;2023-11-19T08:50:48;101011.25;;;12.11;100.00
73748;BME280;62056;52.130;5.428;2023-11-19T08:53:15;101008.31;;;12.12;100.00
73748;BME280;62056;52.130;5.428;2023-11-19T08:55:42;101014.81;;;12.20;100.00
73748;BME280;62056;52.130;5.428;2023-11-19T08:58:08;101017.69;;;12.24;100.00
73748;BME280;62056;52.130;5.428;2023-11-19T09:00:35;101011.28;;;12.25;100.00
73748;BME280;62056;52.130;5.428;2023-11-19T09:03:02;101013.59;;;12.31;100.00
73748;BME280;62056;52.130;5.428;2023-11-19T09:05:30;101007.16;;;12.32;99.35
73748;BME280;62056;52.130;5.428;2023-11-19T09:07:57;101003.03;;;12.40;100.00
73748;BME280;62056;52.130;5.428;2023-11-19T09:10:23;101016.75;;;12.47;100.00
73748;BME280;62056;52.130;5.428;2023-11-19T09:12:50;101005.31;;;12.47;98.43
73748;BME280;62056;52.130;5.428;2023-11-19T09:15:16;101016.06;;;12.55;100.00
73748;BME280;62056;52.130;5.428;2023-11-19T09:17:43;101010.34;;;12.62;100.00
73748;BME280;62056;52.130;5.428;2023-11-19T09:20:10;100998.41;;;12.60;97.86
73748;BME280;62056;52.130;5.428;2023-11-19T09:22:42;101012.44;;;12.65;96.31
73748;BME280;62056;52.130;5.428;2023-11-19T09:25:08;101004.81;;;12.72;98.41
73748;BME280;62056;52.130;5.428;2023-11-19T09:27:35;101013.63;;;12.73;97.87
73748;BME280;62056;52.130;5.428;2023-11-19T09:30:04;100999.41;;;12.78;97.40
73748;BME280;62056;52.130;5.428;2023-11-19T09:32:31;101009.88;;;12.88;98.70
73748;BME280;62056;52.130;5.428;2023-11-19T09:34:57;100995.84;;;12.82;96.59
73748;BME280;62056;52.130;5.428;2023-11-19T09:37:24;101001.78;;;12.79;95.21
73748;BME280;62056;52.130;5.428;2023-11-19T09:39:51;101006.81;;;12.94;98.72
73748;BME280;62056;52.130;5.428;2023-11-19T09:42:19;101004.22;;;12.89;97.03
73748;BME280;62056;52.130;5.428;2023-11-19T09:44:47;100996.44;;;12.93;96.33
73748;BME280;62056;52.130;5.428;2023-11-19T09:47:14;101002.06;;;12.91;96.29
73748;BME280;62056;52.130;5.428;2023-11-19T09:49:43;101000.38;;;12.95;95.79
73748;BME280;62056;52.130;5.428;2023-11-19T09:52:10;101001.06;;;13.01;97.09
73748;BME280;62056;52.130;5.428;2023-11-19T09:54:37;100996.22;;;13.03;97.55
73748;BME280;62056;52.130;5.428;2023-11-19T09:57:04;100993.25;;;13.05;96.00
73748;BME280;62056;52.130;5.428;2023-11-19T09:59:34;100983.06;;;13.07;96.24
73748;BME280;62056;52.130;5.428;2023-11-19T10:02:02;100991.28;;;13.10;96.17
73748;BME280;62056;52.130;5.428;2023-11-19T10:04:30;100993.34;;;13.13;96.06
73748;BME280;62056;52.130;5.428;2023-11-19T10:06:59;100995.72;;;13.15;95.93
73748;BME280;62056;52.130;5.428;2023-11-19T10:09:26;100984.91;;;13.20;95.39
73748;BME280;62056;52.130;5.428;2023-11-19T10:11:53;100989.19;;;13.21;93.63
73748;BME280;62056;52.130;5.428;2023-11-19T10:14:23;100984.34;;;13.23;94.52
73748;BME280;62056;52.130;5.428;2023-11-19T10:16:50;100971.09;;;13.32;95.92
73748;BME280;62056;52.130;5.428;2023-11-19T10:19:21;100969.25;;;13.41;94.71
73748;BME280;62056;52.130;5.428;2023-11-19T10:21:47;100961.19;;;13.32;90.40
73748;BME280;62056;52.130;5.428;2023-11-19T10:24:14;100967.56;;;13.45;94.15
73748;BME280;62056;52.130;5.428;2023-11-19T10:26:56;100964.59;;;13.47;92.68
73748;BME280;62056;52.130;5.428;2023-11-19T10:29:23;100963.09;;;13.54;93.44
73748;BME280;62056;52.130;5.428;2023-11-19T10:31:57;100958.59;;;13.64;93.42
73748;BME280;62056;52.130;5.428;2023-11-19T10:34:44;100964.13;;;13.67;91.75
73748;BME280;62056;52.130;5.428;2023-11-19T10:37:29;100954.47;;;13.80;91.07
73748;BME280;62056;52.130;5.428;2023-11-19T10:39:58;100962.34;;;13.85;90.39
73748;BME280;62056;52.130;5.428;2023-11-19T10:42:25;100945.19;;;13.77;86.89
73748;BME280;62056;52.130;5.428;2023-11-19T10:44:51;100960.31;;;13.82;90.14
73748;BME280;62056;52.130;5.428;2023-11-19T10:47:19;100947.28;;;13.89;88.97
73748;BME280;62056;52.130;5.428;2023-11-19T10:50:02;100964.25;;;13.85;89.55
73748;BME280;62056;52.130;5.428;2023-11-19T10:52:31;100950.81;;;13.99;89.31
73748;BME280;62056;52.130;5.428;2023-11-19T10:55:00;100958.34;;;13.96;88.28
73748;BME280;62056;52.130;5.428;2023-11-19T10:57:30;100957.13;;;14.03;89.80
73748;BME280;62056;52.130;5.428;2023-11-19T11:00:01;100953.72;;;14.11;88.78
73748;BME280;62056;52.130;5.428;2023-11-19T11:02:32;100957.00;;;14.08;85.09
73748;BME280;62056;52.130;5.428;2023-11-19T11:05:02;100968.22;;;14.18;87.91
73748;BME280;62056;52.130;5.428;2023-11-19T11:07:31;100955.16;;;14.17;86.33
73748;BME280;62056;52.130;5.428;2023-11-19T11:10:07;100967.91;;;14.20;87.04
73748;BME280;62056;52.130;5.428;2023-11-19T11:12:37;100966.47;;;14.14;85.36
73748;BME280;62056;52.130;5.428;2023-11-19T11:15:11;100961.00;;;14.19;86.16
73748;BME280;62056;52.130;5.428;2023-11-19T11:17:39;100964.91;;;14.13;85.62
73748;BME280;62056;52.130;5.428;2023-11-19T11:20:10;100966.00;;;14.21;85.04
73748;BME280;62056;52.130;5.428;2023-11-19T11:22:55;100961.00;;;14.19;85.80
73748;BME280;62056;52.130;5.428;2023-11-19T11:25:40;100956.91;;;14.22;83.57
73748;BME280;62056;52.130;5.428;2023-11-19T11:31:08;100951.56;;;14.22;84.98
73748;BME280;62056;52.130;5.428;2023-11-19T11:33:59;100957.88;;;14.26;85.04
73748;BME280;62056;52.130;5.428;2023-11-19T11:36:31;100949.84;;;14.26;85.50
73748;BME280;62056;52.130;5.428;2023-11-19T11:39:05;100945.00;;;14.36;85.26
73748;BME280;62056;52.130;5.428;2023-11-19T11:41:34;100958.53;;;14.31;84.43
73748;BME280;62056;52.130;5.428;2023-11-19T11:44:01;100948.91;;;14.30;85.43
73748;BME280;62056;52.130;5.428;2023-11-19T11:46:53;100954.63;;;14.37;84.55
73748;BME280;62056;52.130;5.428;2023-11-19T11:49:25;100954.91;;;14.27;83.87
73748;BME280;62056;52.130;5.428;2023-11-19T11:51:58;100951.91;;;14.29;84.74
73748;BME280;62056;52.130;5.428;2023-11-19T11:54:28;100946.06;;;14.27;82.97
73748;BME280;62056;52.130;5.428;2023-11-19T11:57:10;100942.91;;;14.25;80.64
73748;BME280;62056;52.130;5.428;2023-11-19T11:59:46;100949.59;;;14.36;85.50
73748;BME280;62056;52.130;5.428;2023-11-19T12:02:16;100955.91;;;14.40;84.10
73748;BME280;62056;52.130;5.428;2023-11-19T12:04:48;100950.19;;;14.33;83.26
73748;BME280;62056;52.130;5.428;2023-11-19T12:07:21;100941.84;;;14.34;83.43
73748;BME280;62056;52.130;5.428;2023-11-19T12:10:06;100939.00;;;14.31;80.02
73748;BME280;62056;52.130;5.428;2023-11-19T12:12:34;100934.50;;;14.40;83.89
73748;BME280;62056;52.130;5.428;2023-11-19T12:15:04;100937.47;;;14.38;83.25
73748;BME280;62056;52.130;5.428;2023-11-19T12:20:01;100924.88;;;14.39;83.97
73748;BME280;62056;52.130;5.428;2023-11-19T12:22:28;100925.69;;;14.40;83.49
73748;BME280;62056;52.130;5.428;2023-11-19T12:24:54;100930.72;;;14.41;82.89
73748;BME280;62056;52.130;5.428;2023-11-19T12:27:22;100927.88;;;14.37;82.84
73748;BME280;62056;52.130;5.428;2023-11-19T12:29:49;100931.47;;;14.33;82.67
73748;BME280;62056;52.130;5.428;2023-11-19T12:32:17;100936.50;;;14.34;83.62
73748;BME280;62056;52.130;5.428;2023-11-19T12:34:45;100937.66;;;14.42;83.22
73748;BME280;62056;52.130;5.428;2023-11-19T12:37:11;100928.47;;;14.34;83.47
73748;BME280;62056;52.130;5.428;2023-11-19T12:39:38;100936.50;;;14.34;83.46
73748;BME280;62056;52.130;5.428;2023-11-19T12:42:06;100941.56;;;14.36;83.50
73748;BME280;62056;52.130;5.428;2023-11-19T12:44:34;100936.22;;;14.36;82.96
73748;BME280;62056;52.130;5.428;2023-11-19T12:49:28;100939.97;;;14.35;82.33
73748;BME280;62056;52.130;5.428;2023-11-19T12:51:55;100934.78;;;14.30;81.86
73748;BME280;62056;52.130;5.428;2023-11-19T12:54:39;100938.09;;;14.35;82.47
73748;BME280;62056;52.130;5.428;2023-11-19T12:57:06;100942.78;;;14.30;82.65